Station: Keith West  

  Atmospheric Gas Attenuation - ITU Rec 676-11   ----------------- dB/100km -----------------
Date Time Temp RH % AH g/m3 Dew Point Wind Direction Speed kph Gust kph Barometer mB Rainfall Since 9am 24GHz 47GHz 76GHz 122GHz 134GHz 241GHz
06/09 14:50 15.1 71 9.16 9.9 15 19 1022.7 0.2 20.7 26.8 41.8 109.7 104.9 361.4
06/09 14:40 14.9 72 9.18 9.9 13 19 1022.7 0.2 20.8 26.9 42.0 110.2 105.5 363.2
06/09 14:30 14.9 72 9.18 9.9 15 22 1022.7 0.2 20.8 26.9 42.0 110.2 105.5 363.2
06/09 14:20 15 75 9.62 10.6 17 22 1022.7 0.2 21.7 27.6 43.7 114.9 111.2 383.5
06/09 14:10 15.6 72 9.57 10.6 17 24 1022.6 0.2 21.6 27.3 43.2 113.4 109.7 378.2
06/09 14:00 15.6 73 9.71 10.8 13 20 1022.7 0.2 21.9 27.5 43.8 115.0 111.6 384.8
06/09 13:50 15.4 71 9.33 10.2 13 22 1022.7 0.2 21.1 27.0 42.3 111.1 106.8 367.9
06/09 13:40 15.2 74 9.6 10.6 15 20 1022.8 0.2 21.6 27.5 43.6 114.4 110.7 381.6
06/09 13:30 14.9 74 9.43 10.3 15 20 1022.9 0.2 21.3 27.3 43.0 113.0 108.8 375.0
06/09 13:20 14.8 73 9.25 10 17 20 1022.9 0.2 20.9 27.0 42.3 111.1 106.5 367.0
06/09 13:10 15 71 9.1 9.8 11 17 1023 0.2 20.6 26.7 41.6 109.2 104.3 359.1
06/09 13:00 15.6 71 9.44 10.4 11 15 1023.1 0.2 21.3 27.1 42.7 112.1 108.0 372.2
06/09 12:50 15.4 73 9.59 10.6 11 17 1023.3 0.2 21.6 27.4 43.4 114.0 110.3 380.3
06/09 12:40 15 75 9.62 10.6 11 15 1023.5 0 21.7 27.6 43.8 115.0 111.3 383.7
06/09 12:30 14.4 79 9.77 10.8 11 17 1023.6 0 22.0 28.0 44.8 117.5 114.2 393.9
06/09 12:20 13.6 81 9.53 10.4 13 19 1023.9 0 21.6 27.9 44.2 116.1 112.1 386.4
06/09 12:10 13.6 80 9.42 10.2 15 22 1023.9 0 21.3 27.7 43.8 114.8 110.6 381.1
06/09 12:00 14.2 77 9.4 10.2 13 19 1023.9 0 21.3 27.5 43.3 113.7 109.5 377.3
06/09 11:50 15.8 70 9.42 10.3 7 13 1023.9 0 21.2 27.0 42.6 111.7 107.5 370.6
06/09 11:40 16 71 9.67 10.7 6 9 1023.9 0 21.7 27.4 43.5 114.1 110.6 381.3
06/09 11:30 15.2 71 9.22 10 4 9 1023.9 0 20.8 26.9 42.1 110.4 105.7 364.1
06/09 11:20 14.8 77 9.75 10.8 6 11 1024 0 22.0 27.9 44.5 116.8 113.4 391.1
06/09 11:10 14.4 81 10.01 11.2 6 13 1024 0 22.6 28.5 45.8 120.3 117.6 405.6
06/09 11:00 13.6 84 9.89 11 9 17 1023.9 0 22.3 28.5 45.7 120.1 117.1 403.9
06/09 10:50 13.5 83 9.71 10.7 13 17 1023.9 0 22.0 28.2 45.0 118.2 114.8 395.7
06/09 10:40 13.7 82 9.71 10.7 11 19 1023.7 0 22.0 28.2 44.9 117.9 114.5 394.6
06/09 10:30 13.9 77 9.23 9.9 7 13 1023.7 0 20.9 27.3 42.8 112.3 107.6 370.6
06/09 10:20 14.1 75 9.1 9.7 9 13 1023.5 0 20.6 27.0 42.1 110.5 105.5 363.4
06/09 10:10 14.4 76 9.39 10.2 6 11 1023.5 0 21.2 27.4 43.2 113.3 109.0 375.7
06/09 10:00 14.3 76 9.34 10.1 9 15 1023.5 0 21.1 27.3 43.0 112.9 108.5 373.8
06/09 09:50 14 81 9.77 10.8 11 17 1023.5 0 22.1 28.2 45.0 118.1 114.8 395.9
06/09 09:40 13.9 78 9.35 10.1 11 17 1023.5 0 21.2 27.5 43.3 113.6 109.2 376.2
06/09 09:30 14 80 9.65 10.6 9 13 1023.5 0 21.8 28.0 44.5 116.8 113.2 390.1
06/09 09:20 13.7 79 9.36 10.1 6 9 1023.3 0 21.2 27.6 43.4 114.0 109.6 377.6
06/09 09:10 13.4 81 9.42 10.2 7 11 1023.2 0 21.4 27.8 43.8 115.1 110.9 381.9
06/09 09:00 12.6 83 9.18 9.8 9 15 1023.2 0 20.9 27.6 43.3 113.5 108.7 374.2
06/09 08:50 13.4 83 9.65 10.6 9 19 1023.1 3 21.8 28.1 44.8 117.6 114.0 393.0
06/09 08:40 12.9 83 9.36 10.1 7 9 1023.1 3 21.2 27.8 43.9 115.1 110.7 381.4
06/09 08:30 12.4 85 9.29 10 4 6 1023 3 21.1 27.8 43.8 115.1 110.5 380.5
06/09 08:20 12.3 88 9.56 10.4 6 7 1022.9 3 21.7 28.3 45.0 118.3 114.4 394.1
06/09 08:10 11.9 88 9.32 10 9 11 1022.8 3 21.2 28.0 44.2 116.1 111.6 384.3
06/09 08:00 11.9 89 9.43 10.1 11 17 1022.7 3 21.5 28.2 44.7 117.4 113.1 389.7
06/09 07:50 11.6 89 9.25 9.9 13 17 1022.5 3 21.1 28.0 44.1 115.7 111.0 382.3
06/09 07:40 11.3 89 9.08 9.6 7 11 1022.5 3 20.7 27.8 43.5 114.2 109.1 375.4
06/09 07:30 10.8 89 8.8 9.1 6 11 1022.3 3 20.2 27.5 42.6 111.8 105.8 364.0
06/09 07:20 10.5 89 8.63 8.8 2 6 1022.3 3 19.8 27.3 42.0 110.3 103.9 357.1
06/09 07:10 10.2 89 8.47 8.4 2 4 1022.1 3 19.5 27.1 41.5 108.9 102.0 350.7
06/09 07:00 10 89 8.36 8.3 6 6 1022 3 19.3 27.0 41.2 107.9 100.8 346.2
06/09 06:50 9.8 89 8.26 8.1 6 7 1021.8 3 19.0 26.8 40.8 107.0 99.6 342.2
06/09 06:40 9.7 89 8.21 8 4 7 1021.6 3 18.9 26.8 40.7 106.6 99.1 340.1
06/09 06:30 9.6 89 8.16 7.9 4 6 1021.4 3 18.8 26.7 40.5 106.1 98.5 338.1
06/09 06:20 9.5 89 8.1 7.8 4 4 1021.4 3 18.7 26.7 40.3 105.6 97.8 335.6
06/09 06:10 9.6 88 8.06 7.8 2 4 1021.3 3 18.6 26.6 40.1 105.0 97.1 333.2
06/09 06:00 9.6 89 8.16 7.9 4 7 1021.2 3 18.8 26.7 40.5 106.1 98.5 338.0
06/09 05:50 9.6 89 8.16 7.9 4 6 1021 3 18.8 26.7 40.5 106.1 98.4 338.0
06/09 05:40 9.6 90 8.25 8 6 9 1020.9 3 19.0 26.9 40.8 107.1 99.7 342.3
06/09 05:30 9.5 91 8.29 8.1 6 9 1020.8 3 19.1 27.0 41.1 107.7 100.4 344.7
06/09 05:20 9.3 92 8.27 8.1 7 11 1020.8 3 19.1 27.0 41.1 107.7 100.3 344.6
06/09 05:10 8.9 92 8.06 7.7 7 11 1020.6 3 18.7 26.7 40.4 105.9 97.9 336.0
06/09 05:00 8.6 92 7.91 7.4 6 7 1020.4 3 18.3 26.6 39.9 104.6 96.2 330.0
06/09 04:50 8.3 92 7.76 7.1 6 7 1020.4 3 18.0 26.4 39.4 103.3 94.5 323.9
06/09 04:40 8.1 92 7.66 6.9 6 7 1020.4 3 17.8 26.3 39.1 102.4 93.3 319.9
06/09 04:30 7.5 92 7.37 6.3 6 9 1020.3 3 17.2 26.0 38.2 99.9 90.0 308.2
06/09 04:20 7.1 92 7.18 5.9 9 13 1020.2 3 16.8 25.8 37.6 98.3 87.9 300.6
06/09 04:10 6.9 92 7.09 5.7 9 9 1020 3 16.7 25.7 37.3 97.5 86.8 297.0
06/09 04:00 6.9 92 7.09 5.7 6 9 1020 3 16.7 25.7 37.3 97.5 86.8 297.0
06/09 03:50 6.7 92 6.99 5.5 9 11 1019.9 3 16.5 25.5 36.9 96.6 85.7 292.9
06/09 03:40 5.6 92 6.51 4.4 6 9 1019.8 3 15.5 25.1 35.4 92.6 80.3 273.7
06/09 03:30 5.1 92 6.3 3.9 6 6 1019.7 3 15.0 24.8 34.8 90.9 77.9 265.4
06/09 03:20 4.7 92 6.13 3.5 4 4 1019.8 3 14.7 24.7 34.3 89.5 76.0 258.6
06/09 03:10 5 92 6.26 3.8 6 7 1019.6 3 14.9 24.8 34.7 90.5 77.4 263.8
06/09 03:00 4.7 92 6.13 3.5 4 6 1019.7 3 14.7 24.7 34.3 89.5 76.0 258.6
06/09 02:50 5.1 92 6.3 3.9 4 4 1019.8 3 15.0 24.8 34.8 90.9 77.9 265.4
06/09 02:40 4.4 91 5.95 3.1 6 7 1019.8 3 14.3 24.5 33.6 87.8 73.8 251.0
06/09 02:30 4.9 92 6.21 3.7 7 9 1019.8 3 14.8 24.7 34.5 90.1 76.9 261.8
06/09 02:20 4.8 92 6.17 3.6 7 9 1019.8 3 14.8 24.7 34.4 89.8 76.4 260.2
06/09 02:10 4.8 91 6.11 3.5 7 9 1019.8 3 14.6 24.6 34.1 89.1 75.6 257.3
06/09 02:00 4.6 91 6.03 3.3 9 9 1019.7 3 14.5 24.5 33.9 88.5 74.7 254.1
06/09 01:50 4.9 91 6.15 3.5 9 9 1019.6 3 14.7 24.6 34.2 89.4 76.0 258.8
06/09 01:40 4.9 91 6.15 3.6 7 9 1019.6 3 14.7 24.6 34.2 89.4 76.0 258.8
06/09 01:30 5.1 91 6.23 3.8 9 11 1019.5 3 14.9 24.7 34.5 90.1 76.9 262.0
06/09 01:20 5.3 91 6.31 4 9 11 1019.6 3 15.0 24.8 34.7 90.8 77.8 265.1
06/09 01:10 5.5 91 6.4 4.2 9 11 1019.5 3 15.2 24.9 35.0 91.5 78.8 268.7
06/09 01:00 5.6 91 6.44 4.2 7 9 1019.3 3 15.3 24.9 35.1 91.8 79.3 270.3
06/09 00:50 5.6 91 6.44 4.2 6 7 1019.4 3 15.3 24.9 35.1 91.8 79.3 270.3
06/09 00:40 5.8 91 6.52 4.4 7 9 1019.3 3 15.5 25.0 35.4 92.5 80.2 273.4
06/09 00:30 6.1 91 6.65 4.7 9 9 1019.2 3 15.7 25.1 35.8 93.5 81.6 278.5
06/09 00:20 6.3 90 6.67 4.8 7 9 1019.2 3 15.8 25.1 35.8 93.5 81.7 278.8
06/09 00:10 6.2 90 6.62 4.7 9 11 1019.1 3 15.7 25.0 35.6 93.1 81.1 276.7
06/09 00:00 6.5 90 6.75 5 6 7 1019 3 15.9 25.2 36.0 94.1 82.5 281.9
05/09 23:50 7.2 90 7.07 5.7 6 6 1018.9 3 16.6 25.5 37.0 96.8 86.1 294.6
05/09 23:40 7.2 89 6.99 5.5 6 7 1018.8 3 16.4 25.4 36.7 95.9 85.0 290.7
05/09 23:30 7.7 90 7.3 6.2 7 9 1018.9 3 17.1 25.7 37.7 98.7 88.7 303.7
05/09 23:20 7.8 89 7.27 6.1 9 11 1018.8 3 17.0 25.7 37.5 98.3 88.2 301.9
05/09 23:10 8.3 90 7.59 6.8 11 13 1018.7 3 17.7 26.0 38.6 101.2 92.0 315.2
05/09 23:00 8.2 89 7.46 6.5 9 9 1018.6 3 17.4 25.9 38.1 99.9 90.3 309.4
05/09 22:50 8.2 89 7.46 6.5 9 11 1018.6 3 17.4 25.9 38.1 99.9 90.3 309.4
05/09 22:40 8.3 88 7.42 6.4 9 9 1018.4 3 17.3 25.7 37.9 99.3 89.6 307.0
05/09 22:30 8.7 88 7.61 6.8 9 11 1018.3 3 17.7 25.9 38.5 100.9 91.8 314.5
05/09 22:20 9.2 88 7.86 7.3 9 13 1018.2 3 18.2 26.2 39.3 103.0 94.6 324.4

Last Refresh: 06-Sep-2026 15:04:43

Bureau of Meteorology